sensor_id;sensor_type;location;lat;lon;timestamp;temperature;humidity
37528;DHT22;23372;52.050;4.810;2023-04-03T00:01:01;4.30;99.90
37528;DHT22;23372;52.050;4.810;2023-04-03T00:03:27;4.20;99.90
37528;DHT22;23372;52.050;4.810;2023-04-03T00:05:53;4.20;99.90
37528;DHT22;23372;52.050;4.810;2023-04-03T00:08:18;4.20;99.90
37528;DHT22;23372;52.050;4.810;2023-04-03T00:10:44;4.10;99.90
37528;DHT22;23372;52.050;4.810;2023-04-03T00:13:10;4.00;99.90
37528;DHT22;23372;52.050;4.810;2023-04-03T00:15:36;4.00;99.90
37528;DHT22;23372;52.050;4.810;2023-04-03T00:18:02;4.00;99.90
37528;DHT22;23372;52.050;4.810;2023-04-03T00:20:28;4.00;99.90
37528;DHT22;23372;52.050;4.810;2023-04-03T00:22:54;3.90;99.90
37528;DHT22;23372;52.050;4.810;2023-04-03T00:25:20;3.90;99.90
37528;DHT22;23372;52.050;4.810;2023-04-03T00:27:46;3.90;99.90
37528;DHT22;23372;52.050;4.810;2023-04-03T00:30:15;3.90;99.90
37528;DHT22;23372;52.050;4.810;2023-04-03T00:32:41;3.80;99.90
37528;DHT22;23372;52.050;4.810;2023-04-03T00:35:07;3.80;99.90
37528;DHT22;23372;52.050;4.810;2023-04-03T00:37:33;3.80;99.90
37528;DHT22;23372;52.050;4.810;2023-04-03T00:39:58;3.80;99.90
37528;DHT22;23372;52.050;4.810;2023-04-03T00:42:24;3.80;99.90
37528;DHT22;23372;52.050;4.810;2023-04-03T00:47:21;3.60;99.90
37528;DHT22;23372;52.050;4.810;2023-04-03T00:49:49;3.60;99.90
37528;DHT22;23372;52.050;4.810;2023-04-03T00:52:18;3.60;99.90
37528;DHT22;23372;52.050;4.810;2023-04-03T00:54:46;3.60;99.90
37528;DHT22;23372;52.050;4.810;2023-04-03T00:57:13;3.50;99.90
37528;DHT22;23372;52.050;4.810;2023-04-03T00:59:48;3.50;99.90
37528;DHT22;23372;52.050;4.810;2023-04-03T01:02:14;3.50;99.90
37528;DHT22;23372;52.050;4.810;2023-04-03T01:04:42;3.40;99.90
37528;DHT22;23372;52.050;4.810;2023-04-03T01:09:38;3.40;99.90
37528;DHT22;23372;52.050;4.810;2023-04-03T01:12:23;3.30;99.90
37528;DHT22;23372;52.050;4.810;2023-04-03T01:14:54;3.30;99.90
37528;DHT22;23372;52.050;4.810;2023-04-03T01:25:34;3.10;99.90
37528;DHT22;23372;52.050;4.810;2023-04-03T01:28:00;3.00;99.90
37528;DHT22;23372;52.050;4.810;2023-04-03T01:30:31;3.00;99.90
37528;DHT22;23372;52.050;4.810;2023-04-03T01:32:56;3.00;99.90
37528;DHT22;23372;52.050;4.810;2023-04-03T01:35:22;3.00;99.90
37528;DHT22;23372;52.050;4.810;2023-04-03T01:37:48;3.00;99.90
37528;DHT22;23372;52.050;4.810;2023-04-03T01:40:13;2.90;99.90
37528;DHT22;23372;52.050;4.810;2023-04-03T01:42:39;2.90;99.90
37528;DHT22;23372;52.050;4.810;2023-04-03T01:45:05;2.80;99.90
37528;DHT22;23372;52.050;4.810;2023-04-03T01:47:31;2.80;99.90
37528;DHT22;23372;52.050;4.810;2023-04-03T01:49:56;2.70;99.90
37528;DHT22;23372;52.050;4.810;2023-04-03T01:52:22;2.80;99.90
37528;DHT22;23372;52.050;4.810;2023-04-03T01:54:47;2.70;99.90
37528;DHT22;23372;52.050;4.810;2023-04-03T01:57:13;2.60;99.90
37528;DHT22;23372;52.050;4.810;2023-04-03T01:59:40;2.60;99.90
37528;DHT22;23372;52.050;4.810;2023-04-03T02:02:06;2.50;99.90
37528;DHT22;23372;52.050;4.810;2023-04-03T02:04:31;2.40;99.90
37528;DHT22;23372;52.050;4.810;2023-04-03T02:06:57;2.40;99.90
37528;DHT22;23372;52.050;4.810;2023-04-03T02:09:22;2.40;99.90
37528;DHT22;23372;52.050;4.810;2023-04-03T02:11:48;2.30;99.90
37528;DHT22;23372;52.050;4.810;2023-04-03T02:14:13;2.30;99.90
37528;DHT22;23372;52.050;4.810;2023-04-03T02:16:39;2.30;99.90
37528;DHT22;23372;52.050;4.810;2023-04-03T02:19:05;2.30;99.90
37528;DHT22;23372;52.050;4.810;2023-04-03T02:21:30;2.20;99.90
37528;DHT22;23372;52.050;4.810;2023-04-03T02:23:56;2.20;99.90
37528;DHT22;23372;52.050;4.810;2023-04-03T02:26:21;2.10;99.90
37528;DHT22;23372;52.050;4.810;2023-04-03T02:28:47;2.10;99.90
37528;DHT22;23372;52.050;4.810;2023-04-03T02:31:13;2.10;99.90
37528;DHT22;23372;52.050;4.810;2023-04-03T02:33:38;2.10;99.90
37528;DHT22;23372;52.050;4.810;2023-04-03T02:36:06;2.00;99.90
37528;DHT22;23372;52.050;4.810;2023-04-03T02:38:32;2.00;99.90
37528;DHT22;23372;52.050;4.810;2023-04-03T02:41:06;2.00;99.90
37528;DHT22;23372;52.050;4.810;2023-04-03T02:43:33;2.00;99.90
37528;DHT22;23372;52.050;4.810;2023-04-03T02:45:58;2.00;99.90
37528;DHT22;23372;52.050;4.810;2023-04-03T02:48:24;2.00;99.90
37528;DHT22;23372;52.050;4.810;2023-04-03T02:50:51;2.10;99.90
37528;DHT22;23372;52.050;4.810;2023-04-03T02:53:17;2.10;99.90
37528;DHT22;23372;52.050;4.810;2023-04-03T02:55:43;2.00;99.90
37528;DHT22;23372;52.050;4.810;2023-04-03T02:58:09;2.00;99.90
37528;DHT22;23372;52.050;4.810;2023-04-03T03:00:35;2.00;99.90
37528;DHT22;23372;52.050;4.810;2023-04-03T03:03:00;2.00;99.90
37528;DHT22;23372;52.050;4.810;2023-04-03T03:05:27;2.00;99.90
37528;DHT22;23372;52.050;4.810;2023-04-03T03:07:53;2.00;99.90
37528;DHT22;23372;52.050;4.810;2023-04-03T03:10:19;2.00;99.90
37528;DHT22;23372;52.050;4.810;2023-04-03T03:12:45;2.00;99.90
37528;DHT22;23372;52.050;4.810;2023-04-03T03:15:11;2.00;99.90
37528;DHT22;23372;52.050;4.810;2023-04-03T03:17:37;2.10;99.90
37528;DHT22;23372;52.050;4.810;2023-04-03T03:20:04;2.10;99.90
37528;DHT22;23372;52.050;4.810;2023-04-03T03:22:30;2.10;99.90
37528;DHT22;23372;52.050;4.810;2023-04-03T03:24:56;2.10;99.90
37528;DHT22;23372;52.050;4.810;2023-04-03T03:27:21;2.10;99.90
37528;DHT22;23372;52.050;4.810;2023-04-03T03:29:47;2.10;99.90
37528;DHT22;23372;52.050;4.810;2023-04-03T03:32:12;2.00;99.90
37528;DHT22;23372;52.050;4.810;2023-04-03T03:34:38;2.00;99.90
37528;DHT22;23372;52.050;4.810;2023-04-03T03:37:03;2.00;99.90
37528;DHT22;23372;52.050;4.810;2023-04-03T03:39:29;2.00;99.90
37528;DHT22;23372;52.050;4.810;2023-04-03T03:41:55;2.00;99.90
37528;DHT22;23372;52.050;4.810;2023-04-03T03:44:21;1.90;99.90
37528;DHT22;23372;52.050;4.810;2023-04-03T03:46:46;2.00;99.90
37528;DHT22;23372;52.050;4.810;2023-04-03T03:49:12;2.00;99.90
37528;DHT22;23372;52.050;4.810;2023-04-03T03:51:38;1.90;99.90
37528;DHT22;23372;52.050;4.810;2023-04-03T03:54:04;2.00;99.90
37528;DHT22;23372;52.050;4.810;2023-04-03T03:56:30;1.80;99.90
37528;DHT22;23372;52.050;4.810;2023-04-03T03:58:56;1.80;99.90
37528;DHT22;23372;52.050;4.810;2023-04-03T04:01:23;1.80;99.90
37528;DHT22;23372;52.050;4.810;2023-04-03T04:03:49;1.80;99.90
37528;DHT22;23372;52.050;4.810;2023-04-03T04:06:14;1.80;99.90
37528;DHT22;23372;52.050;4.810;2023-04-03T04:08:40;1.80;99.90
37528;DHT22;23372;52.050;4.810;2023-04-03T04:11:06;1.80;99.90
37528;DHT22;23372;52.050;4.810;2023-04-03T04:13:32;1.80;99.90
37528;DHT22;23372;52.050;4.810;2023-04-03T04:15:58;1.70;99.90
37528;DHT22;23372;52.050;4.810;2023-04-03T04:18:23;1.60;99.90
37528;DHT22;23372;52.050;4.810;2023-04-03T04:20:49;1.60;99.90
37528;DHT22;23372;52.050;4.810;2023-04-03T04:23:16;1.60;99.90
37528;DHT22;23372;52.050;4.810;2023-04-03T04:25:45;1.70;99.90
37528;DHT22;23372;52.050;4.810;2023-04-03T04:28:11;1.70;99.90
37528;DHT22;23372;52.050;4.810;2023-04-03T04:30:37;1.70;99.90
37528;DHT22;23372;52.050;4.810;2023-04-03T04:33:02;1.70;99.90
37528;DHT22;23372;52.050;4.810;2023-04-03T04:35:28;1.70;99.90
37528;DHT22;23372;52.050;4.810;2023-04-03T04:37:54;1.70;99.90
37528;DHT22;23372;52.050;4.810;2023-04-03T04:40:19;1.60;99.90
37528;DHT22;23372;52.050;4.810;2023-04-03T04:42:46;1.60;99.90
37528;DHT22;23372;52.050;4.810;2023-04-03T04:45:11;1.60;99.90
37528;DHT22;23372;52.050;4.810;2023-04-03T04:47:37;1.60;99.90
37528;DHT22;23372;52.050;4.810;2023-04-03T04:50:03;1.50;99.90
37528;DHT22;23372;52.050;4.810;2023-04-03T04:52:28;1.40;99.90
37528;DHT22;23372;52.050;4.810;2023-04-03T04:54:54;1.40;99.90
37528;DHT22;23372;52.050;4.810;2023-04-03T04:57:20;1.30;99.90
37528;DHT22;23372;52.050;4.810;2023-04-03T04:59:45;1.30;99.90
37528;DHT22;23372;52.050;4.810;2023-04-03T05:02:11;1.30;99.90
37528;DHT22;23372;52.050;4.810;2023-04-03T05:04:36;1.30;99.90
37528;DHT22;23372;52.050;4.810;2023-04-03T05:07:02;1.30;99.90
37528;DHT22;23372;52.050;4.810;2023-04-03T05:09:28;1.30;99.90
37528;DHT22;23372;52.050;4.810;2023-04-03T05:11:53;1.20;99.90
37528;DHT22;23372;52.050;4.810;2023-04-03T05:14:19;1.20;99.90
37528;DHT22;23372;52.050;4.810;2023-04-03T05:16:44;1.30;99.90
37528;DHT22;23372;52.050;4.810;2023-04-03T05:19:10;1.30;99.90
37528;DHT22;23372;52.050;4.810;2023-04-03T05:21:36;1.30;99.90
37528;DHT22;23372;52.050;4.810;2023-04-03T05:24:02;1.30;99.90
37528;DHT22;23372;52.050;4.810;2023-04-03T05:26:29;1.30;99.90
37528;DHT22;23372;52.050;4.810;2023-04-03T05:28:55;1.40;99.90
37528;DHT22;23372;52.050;4.810;2023-04-03T05:31:21;1.40;99.90
37528;DHT22;23372;52.050;4.810;2023-04-03T05:33:47;1.40;99.90
37528;DHT22;23372;52.050;4.810;2023-04-03T05:36:13;1.50;99.90
37528;DHT22;23372;52.050;4.810;2023-04-03T05:38:39;1.50;99.90
37528;DHT22;23372;52.050;4.810;2023-04-03T05:41:05;1.50;99.90
37528;DHT22;23372;52.050;4.810;2023-04-03T05:43:31;1.50;99.90
37528;DHT22;23372;52.050;4.810;2023-04-03T05:45:56;1.60;99.90
37528;DHT22;23372;52.050;4.810;2023-04-03T05:48:22;1.70;99.90
37528;DHT22;23372;52.050;4.810;2023-04-03T05:50:47;1.70;99.90
37528;DHT22;23372;52.050;4.810;2023-04-03T05:53:21;1.70;99.90
37528;DHT22;23372;52.050;4.810;2023-04-03T05:55:47;1.70;99.90
37528;DHT22;23372;52.050;4.810;2023-04-03T05:58:13;1.80;99.90
37528;DHT22;23372;52.050;4.810;2023-04-03T06:00:38;1.90;99.90
37528;DHT22;23372;52.050;4.810;2023-04-03T06:03:04;2.00;99.90
37528;DHT22;23372;52.050;4.810;2023-04-03T06:05:30;2.10;99.90
37528;DHT22;23372;52.050;4.810;2023-04-03T06:07:55;2.20;99.90
37528;DHT22;23372;52.050;4.810;2023-04-03T06:10:22;2.30;99.90
37528;DHT22;23372;52.050;4.810;2023-04-03T06:12:48;2.40;99.90
37528;DHT22;23372;52.050;4.810;2023-04-03T06:15:13;2.50;99.90
37528;DHT22;23372;52.050;4.810;2023-04-03T06:17:40;2.50;99.90
37528;DHT22;23372;52.050;4.810;2023-04-03T06:20:05;2.50;99.90
37528;DHT22;23372;52.050;4.810;2023-04-03T06:22:31;2.60;99.90
37528;DHT22;23372;52.050;4.810;2023-04-03T06:24:57;2.70;99.90
37528;DHT22;23372;52.050;4.810;2023-04-03T06:27:22;2.90;99.90
37528;DHT22;23372;52.050;4.810;2023-04-03T06:29:48;3.10;99.90
37528;DHT22;23372;52.050;4.810;2023-04-03T06:32:15;3.40;99.90
37528;DHT22;23372;52.050;4.810;2023-04-03T06:34:41;3.60;99.90
37528;DHT22;23372;52.050;4.810;2023-04-03T06:37:13;4.30;99.90
37528;DHT22;23372;52.050;4.810;2023-04-03T06:39:39;5.10;99.90
37528;DHT22;23372;52.050;4.810;2023-04-03T06:42:05;5.60;99.90
37528;DHT22;23372;52.050;4.810;2023-04-03T06:44:31;6.30;99.90
37528;DHT22;23372;52.050;4.810;2023-04-03T06:46:59;6.10;99.90
37528;DHT22;23372;52.050;4.810;2023-04-03T06:49:24;6.80;99.90
37528;DHT22;23372;52.050;4.810;2023-04-03T06:51:50;7.60;99.90
37528;DHT22;23372;52.050;4.810;2023-04-03T06:54:17;8.40;99.90
37528;DHT22;23372;52.050;4.810;2023-04-03T06:56:42;9.90;99.90
37528;DHT22;23372;52.050;4.810;2023-04-03T06:59:10;10.60;99.90
37528;DHT22;23372;52.050;4.810;2023-04-03T07:01:37;11.60;99.90
37528;DHT22;23372;52.050;4.810;2023-04-03T07:04:03;11.90;99.90
37528;DHT22;23372;52.050;4.810;2023-04-03T07:06:28;13.30;99.90
37528;DHT22;23372;52.050;4.810;2023-04-03T07:08:54;13.50;99.90
37528;DHT22;23372;52.050;4.810;2023-04-03T07:11:20;13.10;99.90
37528;DHT22;23372;52.050;4.810;2023-04-03T07:13:46;13.10;99.90
37528;DHT22;23372;52.050;4.810;2023-04-03T07:16:12;13.60;99.90
37528;DHT22;23372;52.050;4.810;2023-04-03T07:18:37;13.50;99.90
37528;DHT22;23372;52.050;4.810;2023-04-03T07:21:03;13.70;99.90
37528;DHT22;23372;52.050;4.810;2023-04-03T07:23:29;14.50;99.90
37528;DHT22;23372;52.050;4.810;2023-04-03T07:25:55;15.20;99.90
37528;DHT22;23372;52.050;4.810;2023-04-03T07:28:21;16.40;99.90
37528;DHT22;23372;52.050;4.810;2023-04-03T07:30:53;16.40;99.90
37528;DHT22;23372;52.050;4.810;2023-04-03T07:33:20;16.60;99.90
37528;DHT22;23372;52.050;4.810;2023-04-03T07:35:46;17.50;99.90
37528;DHT22;23372;52.050;4.810;2023-04-03T07:38:12;18.50;99.90
37528;DHT22;23372;52.050;4.810;2023-04-03T07:40:38;19.00;99.90
37528;DHT22;23372;52.050;4.810;2023-04-03T07:43:05;18.30;99.90
37528;DHT22;23372;52.050;4.810;2023-04-03T07:45:32;18.70;99.90
37528;DHT22;23372;52.050;4.810;2023-04-03T07:47:57;18.50;99.90
37528;DHT22;23372;52.050;4.810;2023-04-03T07:50:23;18.50;99.90
37528;DHT22;23372;52.050;4.810;2023-04-03T07:52:48;17.70;99.90
37528;DHT22;23372;52.050;4.810;2023-04-03T07:55:16;17.20;99.90
37528;DHT22;23372;52.050;4.810;2023-04-03T07:57:41;16.30;99.90
37528;DHT22;23372;52.050;4.810;2023-04-03T08:00:08;16.50;99.90
37528;DHT22;23372;52.050;4.810;2023-04-03T08:02:35;15.70;99.90
37528;DHT22;23372;52.050;4.810;2023-04-03T08:05:01;14.40;99.90
37528;DHT22;23372;52.050;4.810;2023-04-03T08:07:26;14.30;99.90
37528;DHT22;23372;52.050;4.810;2023-04-03T08:09:52;15.40;99.90
37528;DHT22;23372;52.050;4.810;2023-04-03T08:12:18;16.90;99.90
37528;DHT22;23372;52.050;4.810;2023-04-03T08:14:43;16.80;99.90
37528;DHT22;23372;52.050;4.810;2023-04-03T08:17:09;16.00;99.90
37528;DHT22;23372;52.050;4.810;2023-04-03T08:19:38;17.20;99.90
37528;DHT22;23372;52.050;4.810;2023-04-03T08:22:03;15.40;99.90
37528;DHT22;23372;52.050;4.810;2023-04-03T08:24:31;16.50;99.90
37528;DHT22;23372;52.050;4.810;2023-04-03T08:26:56;17.30;99.90
37528;DHT22;23372;52.050;4.810;2023-04-03T08:29:22;17.40;99.90
37528;DHT22;23372;52.050;4.810;2023-04-03T08:31:48;19.00;99.90
37528;DHT22;23372;52.050;4.810;2023-04-03T08:34:15;18.40;99.90
37528;DHT22;23372;52.050;4.810;2023-04-03T08:36:41;19.00;99.90
37528;DHT22;23372;52.050;4.810;2023-04-03T08:39:07;16.70;99.90
37528;DHT22;23372;52.050;4.810;2023-04-03T08:47:17;15.10;99.90
37528;DHT22;23372;52.050;4.810;2023-04-03T08:49:58;15.30;99.90
37528;DHT22;23372;52.050;4.810;2023-04-03T08:52:50;14.90;99.90
37528;DHT22;23372;52.050;4.810;2023-04-03T08:55:29;14.20;99.90
37528;DHT22;23372;52.050;4.810;2023-04-03T08:58:04;14.60;99.90
37528;DHT22;23372;52.050;4.810;2023-04-03T09:00:56;14.20;99.90
37528;DHT22;23372;52.050;4.810;2023-04-03T09:03:23;14.80;99.90
37528;DHT22;23372;52.050;4.810;2023-04-03T09:08:32;14.50;99.90
37528;DHT22;23372;52.050;4.810;2023-04-03T09:11:27;14.10;99.90
37528;DHT22;23372;52.050;4.810;2023-04-03T09:16:39;12.50;99.90
37528;DHT22;23372;52.050;4.810;2023-04-03T09:19:16;10.40;99.90
37528;DHT22;23372;52.050;4.810;2023-04-03T09:21:45;9.90;99.90
37528;DHT22;23372;52.050;4.810;2023-04-03T09:24:14;9.60;99.90
37528;DHT22;23372;52.050;4.810;2023-04-03T09:26:58;9.50;99.90
37528;DHT22;23372;52.050;4.810;2023-04-03T09:29:26;9.30;99.90
37528;DHT22;23372;52.050;4.810;2023-04-03T09:32:18;9.90;99.90
37528;DHT22;23372;52.050;4.810;2023-04-03T09:34:44;10.20;99.90
37528;DHT22;23372;52.050;4.810;2023-04-03T09:37:35;10.50;99.90
37528;DHT22;23372;52.050;4.810;2023-04-03T09:40:02;11.00;99.90
37528;DHT22;23372;52.050;4.810;2023-04-03T09:42:30;11.50;99.90
37528;DHT22;23372;52.050;4.810;2023-04-03T09:45:00;11.50;99.90
37528;DHT22;23372;52.050;4.810;2023-04-03T09:47:36;11.10;99.90
37528;DHT22;23372;52.050;4.810;2023-04-03T09:50:21;10.80;99.90
37528;DHT22;23372;52.050;4.810;2023-04-03T09:52:49;11.10;99.90
37528;DHT22;23372;52.050;4.810;2023-04-03T09:57:45;11.10;99.90
37528;DHT22;23372;52.050;4.810;2023-04-03T10:00:22;10.80;99.90
37528;DHT22;23372;52.050;4.810;2023-04-03T10:02:51;11.10;99.90
37528;DHT22;23372;52.050;4.810;2023-04-03T10:10:37;10.80;99.90
37528;DHT22;23372;52.050;4.810;2023-04-03T10:13:09;10.30;99.90
37528;DHT22;23372;52.050;4.810;2023-04-03T10:15:42;10.90;99.90
37528;DHT22;23372;52.050;4.810;2023-04-03T10:18:42;11.00;99.90
37528;DHT22;23372;52.050;4.810;2023-04-03T10:21:33;11.10;99.90
37528;DHT22;23372;52.050;4.810;2023-04-03T10:24:07;10.20;99.90
37528;DHT22;23372;52.050;4.810;2023-04-03T10:29:19;11.20;99.90
37528;DHT22;23372;52.050;4.810;2023-04-03T10:32:02;11.80;99.90
37528;DHT22;23372;52.050;4.810;2023-04-03T10:34:37;12.10;99.90
37528;DHT22;23372;52.050;4.810;2023-04-03T10:37:29;11.70;99.90
37528;DHT22;23372;52.050;4.810;2023-04-03T10:43:27;10.90;99.90
37528;DHT22;23372;52.050;4.810;2023-04-03T10:46:04;11.50;99.90
37528;DHT22;23372;52.050;4.810;2023-04-03T10:48:44;11.30;99.90
37528;DHT22;23372;52.050;4.810;2023-04-03T10:54:11;11.40;99.90
37528;DHT22;23372;52.050;4.810;2023-04-03T10:59:30;12.00;99.90
37528;DHT22;23372;52.050;4.810;2023-04-03T11:02:00;12.00;99.90
37528;DHT22;23372;52.050;4.810;2023-04-03T11:04:29;11.70;99.90
37528;DHT22;23372;52.050;4.810;2023-04-03T11:07:10;11.70;99.90
37528;DHT22;23372;52.050;4.810;2023-04-03T11:09:41;11.60;99.90
37528;DHT22;23372;52.050;4.810;2023-04-03T11:12:29;11.30;99.90
37528;DHT22;23372;52.050;4.810;2023-04-03T11:14:59;11.00;99.90
37528;DHT22;23372;52.050;4.810;2023-04-03T11:17:51;10.90;99.90
37528;DHT22;23372;52.050;4.810;2023-04-03T11:20:26;10.50;99.90
37528;DHT22;23372;52.050;4.810;2023-04-03T11:23:00;10.70;99.90
37528;DHT22;23372;52.050;4.810;2023-04-03T11:25:30;10.50;99.90
37528;DHT22;23372;52.050;4.810;2023-04-03T11:27:58;10.60;99.90
37528;DHT22;23372;52.050;4.810;2023-04-03T11:33:37;11.70;99.90
37528;DHT22;23372;52.050;4.810;2023-04-03T11:36:18;12.20;99.90
37528;DHT22;23372;52.050;4.810;2023-04-03T11:38:46;12.50;99.90
37528;DHT22;23372;52.050;4.810;2023-04-03T11:41:14;12.80;99.90
37528;DHT22;23372;52.050;4.810;2023-04-03T11:46:51;11.80;99.90
37528;DHT22;23372;52.050;4.810;2023-04-03T12:16:33;11.70;99.90
37528;DHT22;23372;52.050;4.810;2023-04-03T12:19:38;11.60;99.90
37528;DHT22;23372;52.050;4.810;2023-04-03T12:22:14;11.70;99.90
37528;DHT22;23372;52.050;4.810;2023-04-03T12:24:43;12.00;99.90
37528;DHT22;23372;52.050;4.810;2023-04-03T12:27:44;12.60;99.90
37528;DHT22;23372;52.050;4.810;2023-04-03T12:30:20;13.10;99.90
37528;DHT22;23372;52.050;4.810;2023-04-03T12:35:29;12.80;99.90
37528;DHT22;23372;52.050;4.810;2023-04-03T12:44:09;12.10;99.90
37528;DHT22;23372;52.050;4.810;2023-04-03T12:46:51;12.30;99.90
37528;DHT22;23372;52.050;4.810;2023-04-03T12:49:30;12.70;99.90
37528;DHT22;23372;52.050;4.810;2023-04-03T12:51:58;12.90;99.90
37528;DHT22;23372;52.050;4.810;2023-04-03T12:54:36;13.00;99.90
37528;DHT22;23372;52.050;4.810;2023-04-03T12:57:17;12.90;99.90
37528;DHT22;23372;52.050;4.810;2023-04-03T12:59:43;12.30;99.90
37528;DHT22;23372;52.050;4.810;2023-04-03T13:04:46;12.30;99.90
37528;DHT22;23372;52.050;4.810;2023-04-03T13:07:42;12.50;99.90
37528;DHT22;23372;52.050;4.810;2023-04-03T13:12:55;13.00;99.90
37528;DHT22;23372;52.050;4.810;2023-04-03T13:15:29;12.50;99.90
37528;DHT22;23372;52.050;4.810;2023-04-03T13:17:56;12.10;99.90
37528;DHT22;23372;52.050;4.810;2023-04-03T13:20:28;12.20;99.90
37528;DHT22;23372;52.050;4.810;2023-04-03T13:23:03;12.30;99.90
37528;DHT22;23372;52.050;4.810;2023-04-03T13:25:33;12.00;99.90
37528;DHT22;23372;52.050;4.810;2023-04-03T13:28:01;12.00;99.90
37528;DHT22;23372;52.050;4.810;2023-04-03T13:30:30;11.50;99.90
37528;DHT22;23372;52.050;4.810;2023-04-03T13:32:59;11.20;99.90
37528;DHT22;23372;52.050;4.810;2023-04-03T13:35:38;11.20;99.90
37528;DHT22;23372;52.050;4.810;2023-04-03T13:38:26;10.60;99.90
37528;DHT22;23372;52.050;4.810;2023-04-03T13:40:58;10.60;99.90
37528;DHT22;23372;52.050;4.810;2023-04-03T13:43:28;10.30;99.90
37528;DHT22;23372;52.050;4.810;2023-04-03T13:46:26;10.70;99.90
37528;DHT22;23372;52.050;4.810;2023-04-03T13:48:53;10.70;99.90
37528;DHT22;23372;52.050;4.810;2023-04-03T13:51:22;10.70;99.90
37528;DHT22;23372;52.050;4.810;2023-04-03T13:53:55;10.80;99.90
37528;DHT22;23372;52.050;4.810;2023-04-03T13:56:37;10.90;99.90
37528;DHT22;23372;52.050;4.810;2023-04-03T13:59:05;10.90;99.90
37528;DHT22;23372;52.050;4.810;2023-04-03T14:04:31;10.80;99.90
37528;DHT22;23372;52.050;4.810;2023-04-03T14:06:58;10.90;99.90
37528;DHT22;23372;52.050;4.810;2023-04-03T14:09:26;11.00;99.90
37528;DHT22;23372;52.050;4.810;2023-04-03T14:11:59;11.00;99.90
37528;DHT22;23372;52.050;4.810;2023-04-03T14:14:31;10.70;99.90
37528;DHT22;23372;52.050;4.810;2023-04-03T14:17:00;10.80;99.90
37528;DHT22;23372;52.050;4.810;2023-04-03T14:19:28;11.10;99.90
37528;DHT22;23372;52.050;4.810;2023-04-03T14:21:56;11.30;99.90
37528;DHT22;23372;52.050;4.810;2023-04-03T14:24:22;11.50;99.90
37528;DHT22;23372;52.050;4.810;2023-04-03T14:26:53;11.40;99.90
37528;DHT22;23372;52.050;4.810;2023-04-03T14:29:20;10.90;99.90
37528;DHT22;23372;52.050;4.810;2023-04-03T14:31:47;10.90;99.90
37528;DHT22;23372;52.050;4.810;2023-04-03T14:34:14;11.20;99.90
37528;DHT22;23372;52.050;4.810;2023-04-03T14:36:43;11.40;99.90
37528;DHT22;23372;52.050;4.810;2023-04-03T14:39:11;11.40;99.90
37528;DHT22;23372;52.050;4.810;2023-04-03T14:41:42;11.20;99.90
37528;DHT22;23372;52.050;4.810;2023-04-03T14:44:08;11.30;99.90
37528;DHT22;23372;52.050;4.810;2023-04-03T14:46:40;11.60;99.90
37528;DHT22;23372;52.050;4.810;2023-04-03T14:49:19;11.40;99.90
37528;DHT22;23372;52.050;4.810;2023-04-03T14:51:46;11.70;99.90
37528;DHT22;23372;52.050;4.810;2023-04-03T14:54:18;11.70;99.90
37528;DHT22;23372;52.050;4.810;2023-04-03T14:56:44;12.10;99.90
37528;DHT22;23372;52.050;4.810;2023-04-03T14:59:13;12.30;99.90
37528;DHT22;23372;52.050;4.810;2023-04-03T15:01:40;12.00;99.90
37528;DHT22;23372;52.050;4.810;2023-04-03T15:04:12;11.80;99.90
37528;DHT22;23372;52.050;4.810;2023-04-03T15:06:38;11.50;99.90
37528;DHT22;23372;52.050;4.810;2023-04-03T15:09:04;10.80;99.90
37528;DHT22;23372;52.050;4.810;2023-04-03T15:11:29;10.80;99.90
37528;DHT22;23372;52.050;4.810;2023-04-03T15:13:55;10.80;99.90
37528;DHT22;23372;52.050;4.810;2023-04-03T15:16:21;10.50;99.90
37528;DHT22;23372;52.050;4.810;2023-04-03T15:18:47;10.40;99.90
37528;DHT22;23372;52.050;4.810;2023-04-03T15:21:13;10.30;99.90
37528;DHT22;23372;52.050;4.810;2023-04-03T15:23:39;10.40;99.90
37528;DHT22;23372;52.050;4.810;2023-04-03T15:26:05;10.30;99.90
37528;DHT22;23372;52.050;4.810;2023-04-03T15:28:38;10.40;99.90
37528;DHT22;23372;52.050;4.810;2023-04-03T15:31:04;10.40;99.90
37528;DHT22;23372;52.050;4.810;2023-04-03T15:33:31;10.20;99.90
37528;DHT22;23372;52.050;4.810;2023-04-03T15:35:57;10.20;99.90
37528;DHT22;23372;52.050;4.810;2023-04-03T15:38:23;10.30;99.90
37528;DHT22;23372;52.050;4.810;2023-04-03T15:40:48;10.40;99.90
37528;DHT22;23372;52.050;4.810;2023-04-03T15:43:15;10.20;99.90
37528;DHT22;23372;52.050;4.810;2023-04-03T15:45:41;10.20;99.90
37528;DHT22;23372;52.050;4.810;2023-04-03T15:48:08;10.10;99.90
37528;DHT22;23372;52.050;4.810;2023-04-03T15:50:34;10.20;99.90
37528;DHT22;23372;52.050;4.810;2023-04-03T15:53:00;10.30;99.90
37528;DHT22;23372;52.050;4.810;2023-04-03T15:55:29;10.30;99.90
37528;DHT22;23372;52.050;4.810;2023-04-03T15:57:55;10.40;99.90
37528;DHT22;23372;52.050;4.810;2023-04-03T16:00:21;10.30;99.90
37528;DHT22;23372;52.050;4.810;2023-04-03T16:02:49;10.40;99.90
37528;DHT22;23372;52.050;4.810;2023-04-03T16:05:17;10.40;99.90
37528;DHT22;23372;52.050;4.810;2023-04-03T16:07:44;10.40;99.90
37528;DHT22;23372;52.050;4.810;2023-04-03T16:10:11;10.40;99.90
37528;DHT22;23372;52.050;4.810;2023-04-03T16:12:37;10.60;99.90
37528;DHT22;23372;52.050;4.810;2023-04-03T16:15:03;10.60;99.90
37528;DHT22;23372;52.050;4.810;2023-04-03T16:17:29;10.60;99.90
37528;DHT22;23372;52.050;4.810;2023-04-03T16:19:57;10.60;99.90
37528;DHT22;23372;52.050;4.810;2023-04-03T16:22:24;10.60;99.90
37528;DHT22;23372;52.050;4.810;2023-04-03T16:24:50;10.50;99.90
37528;DHT22;23372;52.050;4.810;2023-04-03T16:27:16;10.30;99.90
37528;DHT22;23372;52.050;4.810;2023-04-03T16:29:42;10.10;99.90
37528;DHT22;23372;52.050;4.810;2023-04-03T16:32:08;10.20;99.90
37528;DHT22;23372;52.050;4.810;2023-04-03T16:34:33;10.10;99.90
37528;DHT22;23372;52.050;4.810;2023-04-03T16:36:59;10.00;99.90
37528;DHT22;23372;52.050;4.810;2023-04-03T16:39:25;9.80;99.90
37528;DHT22;23372;52.050;4.810;2023-04-03T16:41:51;9.70;99.90
37528;DHT22;23372;52.050;4.810;2023-04-03T16:44:16;9.50;99.90
37528;DHT22;23372;52.050;4.810;2023-04-03T16:46:42;9.50;99.90
37528;DHT22;23372;52.050;4.810;2023-04-03T16:49:08;9.40;99.90
37528;DHT22;23372;52.050;4.810;2023-04-03T16:51:33;9.30;99.90
37528;DHT22;23372;52.050;4.810;2023-04-03T16:53:59;9.20;99.90
37528;DHT22;23372;52.050;4.810;2023-04-03T16:56:24;9.20;99.90
37528;DHT22;23372;52.050;4.810;2023-04-03T16:58:52;9.10;99.90
37528;DHT22;23372;52.050;4.810;2023-04-03T17:01:19;9.00;99.90
37528;DHT22;23372;52.050;4.810;2023-04-03T17:03:45;9.00;99.90
37528;DHT22;23372;52.050;4.810;2023-04-03T17:06:15;8.90;99.90
37528;DHT22;23372;52.050;4.810;2023-04-03T17:08:45;8.80;99.90
37528;DHT22;23372;52.050;4.810;2023-04-03T17:11:11;8.80;99.90
37528;DHT22;23372;52.050;4.810;2023-04-03T17:13:37;8.70;99.90
37528;DHT22;23372;52.050;4.810;2023-04-03T17:16:05;8.60;99.90
37528;DHT22;23372;52.050;4.810;2023-04-03T17:18:33;8.60;99.90
37528;DHT22;23372;52.050;4.810;2023-04-03T17:20:59;8.60;99.90